createdAt,value
2024-05-09T00:02:46.785Z,3.40
2024-05-09T00:07:52.811Z,3.90
2024-05-09T00:12:58.834Z,4.20
2024-05-09T00:18:06.635Z,4.00
2024-05-09T00:23:14.068Z,4.00
2024-05-09T00:28:20.230Z,4.30
2024-05-09T00:33:26.594Z,3.40
2024-05-09T00:38:33.283Z,5.90
2024-05-09T00:43:39.515Z,10.80
2024-05-09T00:48:45.666Z,9.50
2024-05-09T00:53:51.660Z,5.80
2024-05-09T00:58:57.557Z,4.30
2024-05-09T01:04:03.750Z,4.20
2024-05-09T01:09:09.979Z,3.90
2024-05-09T01:14:16.122Z,4.30
2024-05-09T01:19:25.800Z,4.30
2024-05-09T01:24:32.216Z,3.90
2024-05-09T01:29:38.137Z,4.00
2024-05-09T01:34:44.332Z,4.00
2024-05-09T01:39:50.614Z,4.10
2024-05-09T01:44:56.860Z,4.20
2024-05-09T01:50:03.538Z,3.40
2024-05-09T01:55:09.710Z,3.80
2024-05-09T02:00:22.255Z,4.10
2024-05-09T02:05:35.975Z,4.30
2024-05-09T02:10:42.698Z,3.90
2024-05-09T02:15:52.114Z,4.20
2024-05-09T02:20:58.157Z,4.70
2024-05-09T02:26:04.545Z,4.20
2024-05-09T02:31:13.635Z,4.70
2024-05-09T02:36:19.879Z,6.80
2024-05-09T02:41:26.836Z,6.60
2024-05-09T02:46:35.137Z,6.60
2024-05-09T02:51:41.053Z,10.50
2024-05-09T02:56:47.881Z,11.60
2024-05-09T03:01:53.954Z,10.80
2024-05-09T03:07:00.075Z,9.50
2024-05-09T03:12:08.217Z,8.20
2024-05-09T03:17:14.573Z,7.90
2024-05-09T03:22:20.999Z,6.20
2024-05-09T03:27:27.802Z,5.70
2024-05-09T03:32:34.352Z,5.50
2024-05-09T03:37:40.557Z,5.40
2024-05-09T03:42:46.581Z,5.60
2024-05-09T03:47:52.920Z,4.50
2024-05-09T03:52:59.086Z,4.90
2024-05-09T03:58:07.608Z,4.50
2024-05-09T04:03:13.859Z,4.80
2024-05-09T04:08:20.584Z,5.20
2024-05-09T04:13:26.969Z,5.30
2024-05-09T04:18:33.864Z,4.60
2024-05-09T04:23:40.160Z,4.60
2024-05-09T04:28:46.665Z,4.40
2024-05-09T04:33:53.224Z,4.00
2024-05-09T04:39:00.061Z,4.50
2024-05-09T04:44:07.482Z,3.40
2024-05-09T04:49:13.902Z,2.90
2024-05-09T04:59:29.734Z,2.80
2024-05-09T05:04:36.095Z,2.50
2024-05-09T05:09:42.216Z,2.40
2024-05-09T05:14:48.047Z,2.20
2024-05-09T05:19:54.209Z,2.60
2024-05-09T05:25:00.648Z,2.40
2024-05-09T05:30:14.658Z,2.20
2024-05-09T05:35:24.084Z,1.90
2024-05-09T05:40:36.281Z,1.70
2024-05-09T05:45:44.725Z,1.40
2024-05-09T05:50:50.686Z,1.90
2024-05-09T05:55:56.944Z,2.00
2024-05-09T06:01:03.044Z,1.70
2024-05-09T06:06:09.119Z,1.80
2024-05-09T06:11:15.503Z,1.50
2024-05-09T06:16:21.768Z,1.90
2024-05-09T06:21:27.786Z,1.60
2024-05-09T06:26:34.298Z,1.20
2024-05-09T06:31:42.014Z,2.00
2024-05-09T06:36:48.095Z,1.90
2024-05-09T06:41:54.189Z,1.70
2024-05-09T06:47:00.666Z,1.70
2024-05-09T06:57:12.575Z,1.80
2024-05-09T07:02:18.722Z,1.40
2024-05-09T07:07:25.264Z,1.80
2024-05-09T07:17:39.219Z,1.30
2024-05-09T07:22:45.681Z,1.10
2024-05-09T07:27:52.001Z,1.20
2024-05-09T07:32:58.913Z,1.20
2024-05-09T07:38:06.251Z,1.30
2024-05-09T07:43:12.856Z,1.00
2024-05-09T07:53:40.558Z,1.40
2024-05-09T07:58:51.775Z,0.90
2024-05-09T08:03:58.569Z,0.80
2024-05-09T08:09:08.250Z,1.00
2024-05-09T08:14:19.952Z,1.10
2024-05-09T08:19:26.374Z,1.10
2024-05-09T08:24:32.653Z,1.20
2024-05-09T08:29:38.999Z,1.20
2024-05-09T08:35:24.356Z,1.20
2024-05-09T08:45:44.033Z,1.20
2024-05-09T08:50:53.108Z,1.10
2024-05-09T08:56:04.064Z,1.50
2024-05-09T09:01:11.099Z,1.10
2024-05-09T09:06:18.063Z,1.40
2024-05-09T09:11:24.261Z,0.90
2024-05-09T09:16:36.776Z,1.20
2024-05-09T09:21:42.972Z,1.10
2024-05-09T09:26:49.061Z,1.00
2024-05-09T09:32:01.562Z,1.10
2024-05-09T09:37:11.663Z,1.30
2024-05-09T09:42:18.204Z,1.20
2024-05-09T09:47:26.266Z,2.60
2024-05-09T09:52:32.656Z,1.30
2024-05-09T09:57:40.078Z,1.70
2024-05-09T10:02:49.410Z,0.90
2024-05-09T10:07:56.909Z,1.50
2024-05-09T10:13:06.816Z,1.00
2024-05-09T10:18:13.456Z,1.00
2024-05-09T10:23:27.321Z,1.10
2024-05-09T10:28:34.920Z,1.20
2024-05-09T10:33:46.121Z,1.00
2024-05-09T10:38:53.639Z,1.10
2024-05-09T10:43:59.720Z,0.90
2024-05-09T10:49:07.999Z,1.10
2024-05-09T10:54:14.579Z,1.00
2024-05-09T10:59:20.756Z,1.00
2024-05-09T11:04:27.499Z,1.00
2024-05-09T11:09:34.059Z,1.00
2024-05-09T11:14:40.183Z,0.90
2024-05-09T11:19:46.450Z,0.90
2024-05-09T11:24:54.671Z,0.80
2024-05-09T11:30:01.548Z,0.90
2024-05-09T11:35:08.143Z,1.20
2024-05-09T11:40:21.350Z,1.00
2024-05-09T11:45:32.451Z,0.80
2024-05-09T11:50:38.663Z,1.10
2024-05-09T11:55:44.616Z,1.30
2024-05-09T12:00:50.991Z,1.10
2024-05-09T12:05:58.814Z,1.30
2024-05-09T12:11:05.650Z,1.10
2024-05-09T12:16:12.338Z,1.20
2024-05-09T12:21:18.872Z,1.20
2024-05-09T12:26:25.387Z,1.30
2024-05-09T12:31:32.317Z,1.20
2024-05-09T12:36:38.454Z,0.90
2024-05-09T12:41:44.946Z,1.10
2024-05-09T12:46:50.845Z,1.30
2024-05-09T12:51:57.076Z,1.30
2024-05-09T12:57:03.313Z,1.30
2024-05-09T13:02:09.754Z,1.20
2024-05-09T13:07:16.574Z,1.00
2024-05-09T13:12:24.331Z,1.20
2024-05-09T13:17:31.302Z,1.10
2024-05-09T13:22:38.159Z,1.80
2024-05-09T13:27:44.258Z,1.20
2024-05-09T13:32:50.236Z,1.40
2024-05-09T13:37:56.307Z,1.30
2024-05-09T13:43:02.748Z,1.40
2024-05-09T13:48:11.019Z,1.50
2024-05-09T13:53:18.910Z,1.40
2024-05-09T13:58:25.584Z,1.30
2024-05-09T14:03:32.502Z,1.20
2024-05-09T14:08:46.555Z,1.40
2024-05-09T14:13:59.868Z,1.50
2024-05-09T14:19:06.203Z,1.50
2024-05-09T14:24:12.222Z,1.50
2024-05-09T14:29:18.143Z,1.10
2024-05-09T14:34:24.327Z,1.40
2024-05-09T14:39:30.675Z,2.40
2024-05-09T14:44:36.833Z,3.00
2024-05-09T14:49:43.870Z,1.40
2024-05-09T14:54:59.915Z,1.10
2024-05-09T15:00:17.433Z,1.30
2024-05-09T15:05:31.723Z,1.10
2024-05-09T15:10:38.596Z,1.60
2024-05-09T15:15:44.959Z,1.30
2024-05-09T15:20:51.217Z,1.30
2024-05-09T15:25:57.820Z,1.90
2024-05-09T15:31:04.091Z,1.30
2024-05-09T15:36:10.283Z,1.60
2024-05-09T15:41:16.580Z,1.60
2024-05-09T15:46:22.747Z,1.60
2024-05-09T15:51:29.466Z,2.10
2024-05-09T15:56:36.332Z,1.40
2024-05-09T16:01:42.603Z,1.60
2024-05-09T16:06:49.489Z,2.20
2024-05-09T16:11:55.489Z,1.60
2024-05-09T16:17:02.161Z,1.70
2024-05-09T16:22:08.440Z,1.20
2024-05-09T16:27:15.098Z,1.60
2024-05-09T16:32:21.391Z,1.40
2024-05-09T16:37:29.584Z,1.50
2024-05-09T16:42:36.466Z,2.50
2024-05-09T16:47:42.974Z,1.70
2024-05-09T16:52:49.157Z,1.50
2024-05-09T16:57:55.730Z,1.60
2024-05-09T17:03:02.285Z,1.40
2024-05-09T17:08:09.311Z,1.20
2024-05-09T17:13:15.740Z,1.60
2024-05-09T17:18:23.062Z,1.60
2024-05-09T17:23:34.322Z,1.70
2024-05-09T17:28:44.213Z,2.00
2024-05-09T17:33:50.682Z,2.10
2024-05-09T17:38:57.055Z,1.60
2024-05-09T17:44:03.785Z,1.70
2024-05-09T17:49:10.046Z,2.10
2024-05-09T17:54:16.396Z,1.50
2024-05-09T17:59:22.578Z,1.90
2024-05-09T18:04:30.968Z,1.90
2024-05-09T18:09:39.002Z,1.80
2024-05-09T18:14:45.001Z,2.30
2024-05-09T18:19:51.550Z,2.20
2024-05-09T18:24:57.980Z,2.10
2024-05-09T18:30:09.390Z,2.00
2024-05-09T18:35:16.084Z,2.40
2024-05-09T18:40:31.215Z,2.10
2024-05-09T18:45:41.629Z,2.20
2024-05-09T18:50:47.923Z,2.30
2024-05-09T18:55:54.158Z,2.70
2024-05-09T19:01:01.791Z,3.70
2024-05-09T19:06:08.206Z,3.30
2024-05-09T19:11:14.911Z,8.30
2024-05-09T19:16:21.280Z,5.60
2024-05-09T19:21:27.743Z,4.40
2024-05-09T19:26:34.142Z,6.00
2024-05-09T19:31:40.198Z,8.00
2024-05-09T19:36:46.478Z,9.60
2024-05-09T19:41:52.621Z,8.00
2024-05-09T19:46:58.906Z,7.30
2024-05-09T19:52:05.793Z,7.40
2024-05-09T19:57:13.630Z,6.50
2024-05-09T20:02:19.935Z,5.90
2024-05-09T20:07:25.995Z,5.50
2024-05-09T20:12:32.609Z,9.00
2024-05-09T20:17:39.445Z,8.50
2024-05-09T20:22:45.888Z,9.20
2024-05-09T20:27:52.539Z,14.50
2024-05-09T20:32:58.731Z,13.20
2024-05-09T20:38:05.238Z,13.90
2024-05-09T20:43:12.056Z,16.70
2024-05-09T20:48:18.245Z,18.50
2024-05-09T20:53:24.510Z,18.10
2024-05-09T20:58:31.248Z,22.10
2024-05-09T21:03:37.813Z,37.90
2024-05-09T21:08:44.797Z,54.10
2024-05-09T21:13:51.833Z,56.50
2024-05-09T21:18:58.136Z,57.60
2024-05-09T21:24:04.357Z,51.10
2024-05-09T21:29:11.539Z,43.40
2024-05-09T21:34:17.558Z,37.50
2024-05-09T21:39:24.709Z,33.00
2024-05-09T21:44:31.423Z,35.70
2024-05-09T21:49:37.360Z,30.80
2024-05-09T21:54:43.756Z,25.60
2024-05-09T21:59:49.855Z,23.20
2024-05-09T22:04:56.234Z,20.80
2024-05-09T22:10:02.604Z,21.20
2024-05-09T22:15:09.257Z,19.30
2024-05-09T22:20:22.205Z,18.70
2024-05-09T22:25:35.243Z,19.50
2024-05-09T22:30:43.913Z,18.30
2024-05-09T22:35:51.270Z,17.90
2024-05-09T22:40:57.370Z,17.80
2024-05-09T22:46:03.643Z,17.60
2024-05-09T22:51:09.627Z,17.90
2024-05-09T22:56:25.476Z,17.20
2024-05-09T23:01:32.130Z,16.60
2024-05-09T23:06:41.348Z,16.60
2024-05-09T23:11:47.399Z,18.60
2024-05-09T23:16:53.444Z,19.20
2024-05-09T23:21:59.701Z,18.10
2024-05-09T23:27:06.341Z,17.10
2024-05-09T23:32:12.487Z,17.30
2024-05-09T23:37:18.846Z,17.70
2024-05-09T23:42:25.248Z,17.00
2024-05-09T23:47:31.406Z,17.90
2024-05-09T23:52:38.001Z,16.90
2024-05-09T23:57:44.416Z,17.70
